Terminal Aerodrome Forecast
Issued by NWS

Home | Current Version | Previous Version | Text Only | Print | Product List | Glossary On
Versions: 1 2 3 4 5 6 7 8 9 10 11 12
670
FTUS43 KMQT 231721
TAFSAW
TAF
KSAW 231721Z 2318/2418 02011G18KT P6SM OVC015
     FM231900 03011G18KT P6SM OVC020
     FM232200 04009KT P6SM BKN050
     FM241000 10004KT P6SM BKN050
     FM241400 14008KT P6SM BKN060
     FM241700 15011G19KT P6SM BKN110=

USA.gov is the U.S. government's official web portal to all federal, state and local government web resources and services.